Time;durP1;ratioP1;P1;durP2;ratioP2;P2;SDS_P1;SDS_P2;PMS_P1;PMS_P2;Temp;Humidity;BMP_temperature;BMP_pressure;BME280_temperature;BME280_humidity;BME280_pressure;Samples;Min_cycle;Max_cycle;Signal;HPM_P1;HPM_P2
2023/01/09 00:02:05;;;;;;;27.17;13.20;;;;;;;1.67;71.88;99736.75;4885576;29;20121;-93
2023/01/09 00:04:31;;;;;;;22.55;12.88;;;;;;;1.68;71.80;99717.97;4900537;29;20365;-93
2023/01/09 00:06:57;;;;;;;30.35;14.02;;;;;;;1.57;72.07;99724.66;4885416;29;20043;-93
2023/01/09 00:09:22;;;;;;;30.20;14.35;;;;;;;1.64;71.92;99731.81;4883156;29;20028;-92
2023/01/09 00:11:48;;;;;;;26.52;14.93;;;;;;;1.49;72.20;99729.34;4882199;29;20024;-93
2023/01/09 00:14:17;;;;;;;24.45;14.35;;;;;;;1.54;72.35;99734.88;4878324;29;20059;-93
2023/01/09 00:16:42;;;;;;;28.38;13.95;;;;;;;1.45;72.53;99731.56;4866145;29;20040;-93
2023/01/09 00:19:08;;;;;;;23.42;11.25;;;;;;;1.34;72.91;99725.00;4866642;29;20032;-93
2023/01/09 00:21:34;;;;;;;21.02;11.70;;;;;;;1.36;73.09;99725.63;4866754;29;20040;-93
2023/01/09 00:24:00;;;;;;;26.52;13.45;;;;;;;1.22;72.81;99713.34;4866141;29;20028;-93
2023/01/09 00:26:25;;;;;;;22.60;12.82;;;;;;;1.45;72.46;99725.44;4890592;29;20079;-93
2023/01/09 00:28:52;;;;;;;23.90;13.93;;;;;;;1.46;72.40;99727.91;4870315;29;20048;-94
2023/01/09 00:31:18;;;;;;;25.17;12.48;;;;;;;1.38;72.42;99720.13;4877121;29;20040;-93
2023/01/09 00:33:45;;;;;;;20.48;11.73;;;;;;;1.23;73.09;99700.91;4890829;29;20111;-93
2023/01/09 00:36:11;;;;;;;25.00;12.45;;;;;;;1.13;72.65;99688.03;4886161;29;20550;-93
2023/01/09 00:38:37;;;;;;;20.48;11.80;;;;;;;1.20;73.01;99702.94;4889129;29;20024;-93
2023/01/09 00:41:03;;;;;;;16.23;10.57;;;;;;;1.10;73.33;99689.25;4878393;29;20148;-93
2023/01/09 00:43:31;;;;;;;16.25;10.07;;;;;;;1.07;72.69;99692.28;4875502;29;20131;-92
2023/01/09 00:45:57;;;;;;;21.60;12.48;;;;;;;1.10;72.55;99693.72;4869171;29;20577;-93
2023/01/09 00:48:26;;;;;;;21.90;12.93;;;;;;;0.99;72.85;99690.59;4876966;29;20024;-94
2023/01/09 00:50:53;;;;;;;25.80;12.23;;;;;;;1.19;72.66;99700.50;4871559;29;20033;-90
2023/01/09 00:53:20;;;;;;;26.65;14.15;;;;;;;1.03;73.21;99706.13;4902224;29;20043;-93
2023/01/09 00:55:45;;;;;;;21.58;12.55;;;;;;;0.96;73.42;99704.28;4866502;29;20045;-92
2023/01/09 00:58:11;;;;;;;25.67;14.90;;;;;;;0.75;73.51;99699.09;4899415;29;20049;-92
2023/01/09 01:00:36;;;;;;;24.85;15.02;;;;;;;0.80;73.78;99709.91;4876062;29;20060;-92
2023/01/09 01:03:02;;;;;;;27.65;14.68;;;;;;;0.66;74.00;99697.59;4870509;29;20088;-93
2023/01/09 01:08:16;;;;;;;23.38;14.77;;;;;;;0.63;73.80;99706.75;4912470;29;20051;-93
2023/01/09 01:10:42;;;;;;;30.95;16.10;;;;;;;0.55;73.87;99694.47;4880526;29;20032;-93
2023/01/09 01:13:08;;;;;;;25.88;14.27;;;;;;;0.23;75.13;99684.50;4873784;29;20069;-93
2023/01/09 01:15:33;;;;;;;23.23;14.07;;;;;;;0.20;74.75;99685.69;4884117;29;20031;-92
2023/01/09 01:17:59;;;;;;;24.10;14.73;;;;;;;0.16;75.03;99687.09;4895803;29;20433;-93
2023/01/09 01:20:24;;;;;;;23.33;14.15;;;;;;;-0.02;75.19;99669.06;4888312;29;20043;-92
2023/01/09 01:22:52;;;;;;;18.90;12.57;;;;;;;0.06;74.99;99668.88;4880413;29;20045;-93
2023/01/09 01:25:18;;;;;;;19.60;12.88;;;;;;;0.08;75.38;99687.25;4869731;29;20415;-93
2023/01/09 01:27:43;;;;;;;23.30;12.88;;;;;;;-0.11;75.42;99678.94;4869160;29;20037;-93
2023/01/09 01:30:10;;;;;;;24.88;12.73;;;;;;;-0.07;75.54;99688.13;4869518;29;20507;-93
2023/01/09 01:32:36;;;;;;;23.25;12.88;;;;;;;-0.15;75.36;99666.28;4869248;29;20031;-93
2023/01/09 01:35:02;;;;;;;22.73;12.23;;;;;;;-0.12;75.30;99685.28;4875600;29;20415;-93
2023/01/09 01:37:28;;;;;;;25.83;13.35;;;;;;;-0.35;75.82;99656.38;4884068;29;20036;-93
2023/01/09 01:39:53;;;;;;;23.48;11.93;;;;;;;-0.28;75.79;99670.47;4869192;29;20036;-93
2023/01/09 01:42:19;;;;;;;23.42;12.60;;;;;;;-0.31;76.45;99664.72;4900309;29;20040;-93
2023/01/09 01:44:57;;;;;;;23.55;12.40;;;;;;;-0.18;76.14;99686.03;4878802;29;20040;-93
2023/01/09 01:47:49;;;;;;;27.67;13.30;;;;;;;-0.36;77.27;99685.66;4882482;29;20047;-93
2023/01/09 01:50:23;;;;;;;24.55;12.98;;;;;;;-0.46;77.98;99667.44;4907997;29;20110;-93
2023/01/09 01:53:15;;;;;;;23.08;11.77;;;;;;;-0.39;77.73;99670.16;4879975;29;20415;-93
2023/01/09 01:55:53;;;;;;;22.15;12.15;;;;;;;-0.51;78.63;99654.00;4879071;29;20643;-93
2023/01/09 01:58:19;;;;;;;25.08;13.07;;;;;;;-0.30;78.26;99656.59;4873215;29;20043;-92
2023/01/09 02:00:45;;;;;;;21.08;11.38;;;;;;;-0.37;78.31;99658.41;4884325;29;20028;-93
2023/01/09 02:03:11;;;;;;;21.60;12.43;;;;;;;-0.47;79.21;99652.59;4869002;29;20024;-94
2023/01/09 02:05:37;;;;;;;24.27;12.73;;;;;;;-0.46;79.58;99654.22;4870683;29;20116;-93
2023/01/09 02:08:03;;;;;;;24.25;11.98;;;;;;;-0.48;79.04;99622.69;4880456;29;20036;-94
2023/01/09 02:10:29;;;;;;;23.70;13.05;;;;;;;-0.36;78.94;99627.47;4877333;29;20104;-93
2023/01/09 02:12:55;;;;;;;26.15;11.85;;;;;;;-0.64;80.06;99609.72;4884826;29;20032;-92
2023/01/09 02:15:20;;;;;;;22.92;11.20;;;;;;;-0.39;79.88;99620.72;4876974;29;20028;-93
2023/01/09 02:18:14;;;;;;;20.85;12.23;;;;;;;-0.16;79.51;99628.44;4873273;29;20052;-93
2023/01/09 02:20:42;;;;;;;26.58;12.82;;;;;;;-0.17;79.99;99632.06;4897333;29;20027;-93
2023/01/09 02:23:36;;;;;;;23.05;12.25;;;;;;;-0.10;79.75;99635.59;4903380;29;20483;-93
2023/01/09 02:26:43;;;;;;;24.63;12.45;;;;;;;0.05;78.88;99626.75;4892685;29;20037;-93
2023/01/09 02:29:29;;;;;;;25.20;11.50;;;;;;;0.14;78.84;99618.44;4898713;29;20105;-93
2023/01/09 02:32:01;;;;;;;23.67;12.07;;;;;;;0.17;78.88;99622.56;4894220;29;20063;-93
2023/01/09 02:34:41;;;;;;;25.83;12.70;;;;;;;-0.01;78.95;99594.72;4883623;29;20036;-93
2023/01/09 02:37:35;;;;;;;23.20;11.80;;;;;;;-0.06;79.63;99615.69;4884434;29;20472;-93
2023/01/09 02:40:14;;;;;;;23.92;12.00;;;;;;;-0.06;79.87;99610.41;4883793;29;20284;-91
2023/01/09 02:42:40;;;;;;;26.92;13.85;;;;;;;-0.22;80.36;99582.38;4883116;29;20060;-93
2023/01/09 02:45:06;;;;;;;20.20;10.82;;;;;;;-0.12;79.76;99579.41;4878043;29;20033;-94
2023/01/09 02:47:37;;;;;;;21.67;11.40;;;;;;;-0.19;80.47;99591.75;4884058;29;20016;-93
2023/01/09 02:50:04;;;;;;;23.98;12.70;;;;;;;-0.21;80.50;99596.44;4867874;29;20192;-93
2023/01/09 02:52:44;;;;;;;30.20;13.50;;;;;;;-0.13;79.99;99593.63;4867200;29;20039;-94
2023/01/09 02:55:16;;;;;;;25.15;12.13;;;;;;;-0.31;80.77;99578.25;4885693;29;20032;-92
2023/01/09 02:58:20;;;;;;;29.25;12.60;;;;;;;-0.36;80.04;99548.91;4880878;29;20132;-93
2023/01/09 03:00:56;;;;;;;24.10;11.48;;;;;;;-0.24;80.04;99565.06;4845270;29;20456;-93
2023/01/09 03:03:36;;;;;;;29.00;12.43;;;;;;;-0.31;80.76;99564.19;4847774;29;20059;-92
2023/01/09 03:06:13;;;;;;;24.17;11.05;;;;;;;-0.18;79.78;99550.25;4888741;29;20043;-93
2023/01/09 03:08:40;;;;;;;21.75;11.77;;;;;;;-0.26;79.84;99532.69;4902734;29;20551;-93
2023/01/09 03:11:07;;;;;;;28.08;13.50;;;;;;;-0.17;79.31;99536.81;4886811;29;20028;-93
2023/01/09 03:13:42;;;;;;;24.60;12.32;;;;;;;-0.09;79.45;99555.19;4886417;29;20024;-93
2023/01/09 03:16:08;;;;;;;22.80;12.23;;;;;;;-0.01;78.88;99559.50;4917381;29;20028;-94
2023/01/09 03:18:34;;;;;;;21.63;11.88;;;;;;;-0.24;79.34;99541.25;4901715;29;20032;-94
2023/01/09 03:20:59;;;;;;;27.23;12.93;;;;;;;-0.19;80.09;99567.13;4901649;29;20039;-93
2023/01/09 03:23:25;;;;;;;25.95;12.85;;;;;;;-0.18;79.41;99556.38;4880341;29;20035;-92
2023/01/09 03:25:51;;;;;;;23.75;13.40;;;;;;;-0.20;79.85;99558.38;4883831;29;20036;-93
2023/01/09 03:28:27;;;;;;;26.42;13.48;;;;;;;-0.23;79.64;99545.53;4891261;29;20062;-93
2023/01/09 03:30:53;;;;;;;27.23;13.23;;;;;;;-0.35;80.10;99539.97;4883027;29;20040;-93
2023/01/09 03:33:18;;;;;;;26.67;12.85;;;;;;;-0.12;79.48;99549.50;4871396;29;20044;-93
2023/01/09 03:35:44;;;;;;;31.20;14.30;;;;;;;-0.16;79.33;99550.88;4894034;29;20069;-94
2023/01/09 03:38:10;;;;;;;23.65;12.55;;;;;;;-0.18;79.93;99553.72;4882634;29;20043;-92
2023/01/09 03:40:35;;;;;;;27.10;12.65;;;;;;;-0.32;79.98;99549.34;4885615;29;20032;-92
2023/01/09 03:43:01;;;;;;;27.45;13.02;;;;;;;-0.27;79.53;99568.09;4867162;29;20068;-93
2023/01/09 03:45:26;;;;;;;25.90;13.43;;;;;;;-0.42;79.92;99555.78;4882407;29;20032;-92
2023/01/09 03:47:51;;;;;;;22.55;11.77;;;;;;;-0.42;80.44;99568.19;4869357;29;20032;-92
2023/01/09 03:50:17;;;;;;;26.52;14.60;;;;;;;-0.46;79.78;99549.25;4867864;29;20039;-93
2023/01/09 03:52:43;;;;;;;28.83;12.32;;;;;;;-0.23;79.07;99564.06;4867431;29;20036;-93
2023/01/09 03:55:08;;;;;;;28.85;13.85;;;;;;;-0.21;78.95;99567.31;4878041;29;20029;-93
2023/01/09 03:57:34;;;;;;;25.55;12.98;;;;;;;-0.30;79.53;99587.81;4880275;29;20385;-93
2023/01/09 03:59:59;;;;;;;22.85;12.63;;;;;;;-0.42;79.23;99576.94;4894579;29;20055;-93
2023/01/09 04:02:25;;;;;;;25.05;13.10;;;;;;;-0.42;79.72;99582.22;4869814;29;20080;-93
2023/01/09 04:04:50;;;;;;;21.80;13.48;;;;;;;-0.41;79.81;99583.06;4870891;29;20031;-93
2023/01/09 04:07:15;;;;;;;29.95;13.40;;;;;;;-0.45;79.53;99592.41;4887608;29;20037;-93
2023/01/09 04:09:41;;;;;;;28.25;12.32;;;;;;;-0.44;79.90;99589.53;4871160;29;20032;-93
2023/01/09 04:12:09;;;;;;;25.10;13.48;;;;;;;-0.37;79.37;99589.63;4871267;29;20035;-93
2023/01/09 04:14:34;;;;;;;23.42;12.48;;;;;;;-0.50;79.54;99581.56;4870633;29;20111;-93
2023/01/09 04:17:00;;;;;;;27.20;13.25;;;;;;;-0.55;79.47;99589.25;4871454;29;20037;-92
2023/01/09 04:19:26;;;;;;;25.10;12.70;;;;;;;-0.52;80.17;99605.56;4871483;29;20028;-93
2023/01/09 04:21:54;;;;;;;24.60;11.77;;;;;;;-0.45;79.90;99622.31;4886525;29;20568;-93
2023/01/09 04:24:19;;;;;;;24.40;12.20;;;;;;;-0.42;79.68;99602.59;4885891;29;20036;-95
2023/01/09 04:26:45;;;;;;;20.67;12.40;;;;;;;-0.53;79.75;99597.81;4887834;29;20075;-95
2023/01/09 04:29:10;;;;;;;20.92;10.63;;;;;;;-0.52;79.84;99610.03;4871386;29;20036;-95
2023/01/09 04:31:39;;;;;;;22.67;11.23;;;;;;;-0.58;80.34;99594.91;4886763;29;20024;-96
2023/01/09 04:34:04;;;;;;;19.73;10.45;;;;;;;-0.23;79.33;99620.47;4887133;29;20097;-95
2023/01/09 04:36:35;;;;;;;19.73;11.85;;;;;;;-0.33;78.75;99597.97;4872862;29;20025;-95
2023/01/09 04:39:01;;;;;;;26.50;12.30;;;;;;;-0.15;78.92;99616.03;4872303;29;20301;-96
2023/01/09 04:44:11;;;;;;;21.45;12.95;;;;;;;-0.15;79.43;99624.75;4890203;29;20091;-95
2023/01/09 04:46:40;;;;;;;38.92;13.00;;;;;;;-0.36;78.65;99596.53;4870983;29;20063;-96
2023/01/09 04:49:05;;;;;;;25.15;11.70;;;;;;;-0.24;78.88;99607.41;4887936;29;20028;-95
2023/01/09 04:51:31;;;;;;;25.42;12.95;;;;;;;-0.28;78.45;99585.81;4887455;29;20074;-96
2023/01/09 04:53:57;;;;;;;24.08;12.40;;;;;;;-0.19;78.67;99598.88;4871422;29;20065;-95
2023/01/09 04:56:22;;;;;;;23.02;11.10;;;;;;;-0.36;78.97;99587.78;4886529;29;20027;-95
2023/01/09 04:58:48;;;;;;;26.20;13.23;;;;;;;-0.30;79.59;99606.34;4871905;29;20024;-96
2023/01/09 05:01:13;;;;;;;24.67;13.10;;;;;;;-0.24;79.06;99613.50;4886535;29;20501;-96
2023/01/09 05:03:39;;;;;;;28.42;14.52;;;;;;;-0.05;79.38;99627.91;4885963;29;20032;-96
2023/01/09 05:06:05;;;;;;;27.27;13.32;;;;;;;-0.22;78.83;99590.31;4887544;29;20024;-95
2023/01/09 05:08:30;;;;;;;24.30;12.68;;;;;;;-0.11;78.87;99604.84;4876193;29;20025;-95
2023/01/09 05:10:56;;;;;;;24.42;12.90;;;;;;;-0.11;78.50;99626.03;4887663;29;20032;-96
2023/01/09 05:13:21;;;;;;;31.08;15.63;;;;;;;-0.23;79.23;99603.75;4897577;29;20036;-94
2023/01/09 05:15:47;;;;;;;23.38;12.35;;;;;;;-0.18;78.88;99605.84;4880614;29;20096;-95
2023/01/09 05:18:12;;;;;;;27.30;13.90;;;;;;;-0.24;78.82;99604.75;4872384;29;20057;-95
2023/01/09 05:20:38;;;;;;;22.25;11.45;;;;;;;-0.16;78.88;99609.91;4887902;29;20028;-95
2023/01/09 05:23:03;;;;;;;28.00;13.65;;;;;;;-0.32;79.27;99616.28;4886678;29;20036;-95
2023/01/09 05:25:29;;;;;;;23.38;11.63;;;;;;;-0.15;78.80;99623.97;4871296;29;20424;-95
2023/01/09 05:27:55;;;;;;;23.42;11.55;;;;;;;-0.22;79.05;99613.31;4871482;29;20091;-95
2023/01/09 05:30:25;;;;;;;36.97;14.02;;;;;;;-0.32;79.37;99618.13;4902759;29;20041;-93
2023/01/09 05:32:50;;;;;;;36.75;16.42;;;;;;;-0.16;79.62;99646.97;4888566;29;20055;-95
2023/01/09 05:35:19;;;;;;;33.40;14.88;;;;;;;-0.15;79.69;99651.22;4887510;29;20092;-92
2023/01/09 05:37:50;;;;;;;33.22;12.85;;;;;;;-0.22;79.70;99640.59;4889077;29;20025;-95
2023/01/09 05:40:17;;;;;;;28.27;12.52;;;;;;;-0.28;78.97;99616.75;4867998;29;20074;-96
2023/01/09 05:42:46;;;;;;;32.97;15.50;;;;;;;-0.42;79.88;99607.88;4891714;29;20123;-95
2023/01/09 05:45:14;;;;;;;24.85;13.40;;;;;;;-0.15;78.12;99635.34;4881890;29;20032;-95
2023/01/09 05:47:39;;;;;;;29.33;12.77;;;;;;;-0.27;78.73;99635.06;4891329;29;20029;-95
2023/01/09 05:50:11;;;;;;;27.08;14.20;;;;;;;-0.39;77.44;99614.59;4910544;29;20044;-96
2023/01/09 05:52:37;;;;;;;27.10;13.40;;;;;;;-0.02;76.40;99647.88;4880963;29;20052;-95
2023/01/09 05:55:11;;;;;;;24.98;12.05;;;;;;;-0.38;76.20;99608.31;4875148;29;20028;-96
2023/01/09 05:57:39;;;;;;;29.02;13.63;;;;;;;-0.01;76.36;99642.38;4876199;29;20029;-95
2023/01/09 06:00:09;;;;;;;37.55;14.23;;;;;;;-0.03;75.87;99635.66;4890179;29;20021;-96
2023/01/09 06:02:37;;;;;;;26.65;13.20;;;;;;;-0.13;75.84;99637.81;4874951;29;20035;-95
2023/01/09 06:05:03;;;;;;;23.55;12.13;;;;;;;-0.08;76.39;99632.78;4882421;29;20021;-96
2023/01/09 06:12:56;;;;;;;25.15;11.90;;;;;;;0.29;75.98;99639.53;5570097;23;20049;-96
2023/01/09 06:15:22;;;;;;;26.40;11.90;;;;;;;0.09;76.14;99588.28;4821495;29;20073;-92
2023/01/09 06:17:58;;;;;;;25.40;14.20;;;;;;;0.17;76.50;99623.38;4820881;29;20116;-96
2023/01/09 06:20:28;;;;;;;26.98;12.77;;;;;;;0.21;76.25;99610.56;4836784;29;20124;-94
2023/01/09 06:23:02;;;;;;;27.67;12.75;;;;;;;0.15;76.93;99614.00;4837768;29;20516;-96
2023/01/09 06:25:38;;;;;;;27.10;13.38;;;;;;;0.34;76.29;99613.28;4854389;29;20066;-94
2023/01/09 06:28:08;;;;;;;27.70;12.77;;;;;;;0.38;76.37;99603.91;4835816;29;20048;-94
2023/01/09 06:30:53;;;;;;;88.75;40.30;;;;;;;0.22;75.97;99587.53;4858391;29;20041;-96
2023/01/09 06:33:19;;;;;;;26.02;12.30;;;;;;;0.22;76.72;99608.72;4837220;29;20037;-94
2023/01/09 06:41:17;;;;;;;30.27;14.00;;;;;;;0.04;76.74;99556.28;4888873;28;20052;-95
2023/01/09 06:43:43;;;;;;;36.92;18.67;;;;;;;0.14;76.68;99557.56;4850181;29;20041;-94
2023/01/09 06:46:12;;;;;;;75.78;38.03;;;;;;;0.20;76.89;99566.56;4851022;29;20041;-95
2023/01/09 06:48:56;;;;;;;40.10;19.55;;;;;;;0.27;76.72;99558.63;4865088;29;20037;-95
2023/01/09 06:51:22;;;;;;;32.67;13.85;;;;;;;0.36;76.02;99563.56;4837010;29;20037;-94
2023/01/09 06:56:23;;;;;;;48.38;23.17;;;;;;;0.34;75.68;99562.16;5444225;23;20049;-93
2023/01/09 06:58:51;;;;;;;34.03;14.60;;;;;;;0.51;75.79;99566.06;4838614;29;20037;-95
2023/01/09 07:01:16;;;;;;;29.30;14.60;;;;;;;0.55;75.18;99564.66;4880439;29;20029;-96
2023/01/09 07:03:45;;;;;;;38.20;16.88;;;;;;;0.59;75.31;99584.44;4859451;29;20033;-93
2023/01/09 07:06:41;;;;;;;36.83;17.55;;;;;;;0.76;75.06;99595.50;4875478;29;20062;-96
2023/01/09 07:09:37;;;;;;;29.00;15.43;;;;;;;0.60;74.92;99570.19;4908838;29;20032;-92
2023/01/09 07:12:17;;;;;;;39.53;16.77;;;;;;;0.77;74.81;99596.34;4900312;29;20036;-95
2023/01/09 07:14:45;;;;;;;35.50;17.02;;;;;;;0.60;74.83;99564.91;4874856;29;20169;-95
2023/01/09 07:17:12;;;;;;;35.50;17.75;;;;;;;0.84;75.03;99585.75;4885069;29;20083;-96
2023/01/09 07:20:00;;;;;;;31.88;15.52;;;;;;;0.70;75.57;99579.59;4830813;29;20053;-96
2023/01/09 07:26:12;;;;;;;40.13;18.15;;;;;;;1.00;74.88;99554.38;4836493;29;20038;-96
2023/01/09 07:43:04;;;;;;;36.55;16.90;;;;;;;1.47;73.15;99575.63;5179906;23;20088;-95
2023/01/09 07:45:35;;;;;;;40.75;19.40;;;;;;;1.35;73.66;99575.44;4919432;29;20044;-95
2023/01/09 07:52:02;;;;;;;35.05;16.70;;;;;;;1.08;75.16;99552.56;4837883;29;20283;-95
2023/01/09 08:02:20;;;;;;;31.10;15.90;;;;;;;1.55;74.84;99525.00;4906330;28;20052;-94
2023/01/09 08:04:45;;;;;;;41.83;17.50;;;;;;;1.70;74.23;99514.19;4890055;29;20045;-96
2023/01/09 08:07:16;;;;;;;40.10;20.70;;;;;;;1.91;73.85;99522.91;4874697;29;20096;-96
2023/01/09 08:13:32;;;;;;;33.33;15.80;;;;;;;2.33;72.81;99504.81;4931997;23;20045;-96
2023/01/09 08:16:20;;;;;;;29.02;14.50;;;;;;;2.57;72.32;99530.66;4838054;29;20030;-96
2023/01/09 08:19:43;;;;;;;;;;;;;;;;;;;;;
2023/01/09 08:27:26;;;;;;;28.08;14.70;;;;;;;3.23;70.82;99486.03;4893967;29;20057;-94
2023/01/09 08:30:22;;;;;;;;;;;;;;;;;;;;;
2023/01/09 08:33:22;;;;;;;39.58;19.55;;;;;;;3.57;70.03;99467.91;4853653;29;20124;-96
2023/01/09 08:36:17;;;;;;;;;;;;;;;;;;;;;
2023/01/09 08:39:27;;;;;;;34.97;16.65;;;;;;;4.28;68.73;99482.47;4856462;29;20085;-96
2023/01/09 08:47:50;;;;;;;22.17;11.77;;;;;;;5.32;67.90;99500.88;4855210;29;20041;-95
2023/01/09 08:50:45;;;;;;;16.65;8.50;;;;;;;5.64;66.46;99492.53;4856104;29;20036;-96
2023/01/09 08:53:41;;;;;;;14.50;8.43;;;;;;;5.87;65.35;99467.63;4845996;29;20124;-96
2023/01/09 08:56:31;;;;;;;14.43;8.13;;;;;;;6.27;64.39;99485.59;4861083;29;20057;-96
2023/01/09 08:58:57;;;;;;;13.50;7.65;;;;;;;6.57;64.10;99490.72;4866357;29;20045;-95
2023/01/09 09:02:10;;;;;;;15.77;10.18;;;;;;;6.71;62.71;99453.78;4866868;29;20053;-95
2023/01/09 09:05:10;;;;;;;10.20;6.85;;;;;;;7.15;61.83;99475.38;4865554;29;20037;-96
2023/01/09 09:07:41;;;;;;;12.23;6.35;;;;;;;7.30;60.90;99442.69;4853044;29;20045;-96
2023/01/09 09:10:27;;;;;;;11.93;7.05;;;;;;;7.56;60.73;99459.94;4807408;29;20069;-94
2023/01/09 09:13:21;;;;;;;12.52;5.88;;;;;;;7.80;58.38;99451.69;4798143;29;20042;-96
2023/01/09 09:15:58;;;;;;;13.77;8.55;;;;;;;8.04;58.44;99454.94;4801683;29;20046;-96
2023/01/09 09:22:31;;;;;;;;;;;;;;;;;;;;;
2023/01/09 09:25:07;;;;;;;7.38;4.03;;;;;;;8.56;56.14;99459.84;4849281;29;20430;-94
2023/01/09 09:27:32;;;;;;;6.90;4.63;;;;;;;8.64;55.97;99440.59;4898123;29;20126;-95
2023/01/09 09:30:01;;;;;;;7.57;4.93;;;;;;;8.74;55.76;99429.16;4913040;29;20059;-96
2023/01/09 09:32:37;;;;;;;7.90;4.82;;;;;;;8.80;54.89;99414.72;4926440;29;20031;-96
2023/01/09 09:54:15;;;;;;;8.23;4.90;;;;;;;9.43;53.79;99422.94;4900564;29;20107;-96
2023/01/09 09:57:01;;;;;;;6.57;4.13;;;;;;;9.42;53.40;99394.47;4914520;29;20039;-96
2023/01/09 09:59:35;;;;;;;10.27;4.80;;;;;;;9.56;52.82;99407.44;4919421;29;20050;-95
2023/01/09 10:02:19;;;;;;;10.25;5.35;;;;;;;9.78;52.26;99409.97;4911855;29;20122;-95
2023/01/09 10:04:49;;;;;;;14.55;9.15;;;;;;;9.86;52.43;99409.47;4927532;29;20032;-96
2023/01/09 10:07:28;;;;;;;12.05;4.47;;;;;;;9.39;52.68;99381.53;4922665;29;20032;-94
2023/01/09 10:09:54;;;;;;;11.27;7.20;;;;;;;9.43;52.65;99401.44;4920353;29;20043;-93
2023/01/09 10:19:05;;;;;;;6.35;4.70;;;;;;;9.95;51.41;99397.13;4911758;29;20056;-96
2023/01/09 10:21:59;;;;;;;7.40;4.78;;;;;;;10.05;51.78;99391.78;4897919;29;20033;-96
2023/01/09 10:26:56;;;;;;;9.48;6.10;;;;;;;9.89;51.81;99373.97;4904105;28;20049;-96
2023/01/09 10:30:04;;;;;;;6.07;4.07;;;;;;;10.00;50.81;99402.53;4854466;29;20085;-95
2023/01/09 10:33:09;;;;;;;9.95;5.40;;;;;;;10.03;51.06;99377.78;4874481;29;20077;-94
2023/01/09 10:36:26;;;;;;;;;;;;;;;;;;;;;
2023/01/09 10:39:28;;;;;;;10.35;5.38;;;;;;;10.11;50.78;99358.44;4912065;29;20069;-96
2023/01/09 10:42:15;;;;;;;8.70;4.65;;;;;;;10.37;49.80;99371.16;4913394;29;20052;-95
2023/01/09 10:45:16;;;;;;;5.78;4.70;;;;;;;10.20;50.00;99339.88;4913886;29;20036;-96
2023/01/09 10:48:15;;;;;;;7.80;5.00;;;;;;;10.41;49.71;99356.91;4907973;29;20492;-96
2023/01/09 11:05:43;;;;;;;10.20;4.72;;;;;;;10.52;49.22;99346.94;654376;23;20437;31
2023/01/09 11:08:10;;;;;;;12.40;5.45;;;;;;;10.47;49.50;99338.88;4850771;29;20065;-95
2023/01/09 11:15:44;;;;;;;8.75;5.90;;;;;;;10.66;49.58;99331.88;4805089;29;20082;-96
2023/01/09 11:18:39;;;;;;;9.32;5.32;;;;;;;10.51;50.12;99339.94;4749317;30;20048;-96
2023/01/09 11:21:38;;;;;;;7.80;6.05;;;;;;;10.61;49.86;99336.47;4773668;30;20040;-94
2023/01/09 11:24:22;;;;;;;9.82;5.35;;;;;;;10.67;49.56;99333.50;4760191;30;20044;-96
2023/01/09 11:35:05;;;;;;;8.52;5.53;;;;;;;10.67;49.36;99317.34;4910029;28;20116;-95
2023/01/09 11:37:30;;;;;;;7.50;5.00;;;;;;;10.68;49.41;99316.25;4865742;29;20488;-92
2023/01/09 11:39:59;;;;;;;6.95;4.85;;;;;;;10.71;49.00;99304.16;4875841;29;20029;-91
2023/01/09 11:45:27;;;;;;;17.52;7.85;;;;;;;10.57;49.66;99292.31;4883021;29;20100;-94
2023/01/09 11:48:03;;;;;;;10.88;6.38;;;;;;;10.58;49.52;99310.88;4876730;29;20419;-96
2023/01/09 11:50:51;;;;;;;9.05;5.88;;;;;;;10.40;49.71;99281.81;4871628;29;20040;-95
2023/01/09 11:53:19;;;;;;;8.15;5.25;;;;;;;10.43;50.17;99292.84;4883200;29;20410;-93
2023/01/09 11:55:55;;;;;;;6.97;5.40;;;;;;;10.51;49.95;99284.22;4854209;29;20083;-96
2023/01/09 12:01:27;;;;;;;9.00;5.43;;;;;;;10.62;49.45;99285.00;4908290;29;20059;-95
2023/01/09 12:04:35;;;;;;;8.02;5.50;;;;;;;10.69;49.34;99284.75;4894758;29;20074;-95
2023/01/09 12:08:01;;;;;;;7.65;5.47;;;;;;;10.79;48.64;99273.97;4899952;29;20060;-95
2023/01/09 12:10:48;;;;;;;11.07;5.80;;;;;;;10.85;48.83;99263.97;4846269;29;20045;-95
2023/01/09 12:13:23;;;;;;;7.18;5.53;;;;;;;10.89;48.07;99249.72;4822413;29;20030;-95
2023/01/09 12:16:07;;;;;;;12.65;6.47;;;;;;;11.06;48.38;99273.63;4886181;29;20043;-92
2023/01/09 12:19:01;;;;;;;9.57;6.55;;;;;;;10.88;48.39;99226.53;4910103;29;20033;-92
2023/01/09 12:23:01;;;;;;;;;;;;;;;;;;;;;
2023/01/09 12:26:13;;;;;;;9.80;6.70;;;;;;;11.29;47.61;99258.72;4839647;29;20149;-94
2023/01/09 12:29:00;;;;;;;13.50;8.48;;;;;;;11.36;47.53;99252.25;4824439;29;20185;-96
2023/01/09 12:35:12;;;;;;;13.93;6.55;;;;;;;11.07;47.20;99197.09;4997420;23;20126;-95
2023/01/09 12:38:00;;;;;;;;;;;;;;;;;;;;;
2023/01/09 12:44:10;;;;;;;9.35;5.60;;;;;;;11.00;47.47;99226.25;4932952;29;20106;-95
2023/01/09 12:47:07;;;;;;;15.00;8.30;;;;;;;11.07;47.92;99221.34;4922476;29;21057;-96
2023/01/09 12:49:53;;;;;;;10.35;7.70;;;;;;;11.01;47.55;99187.44;4821232;29;20408;-96
2023/01/09 12:52:42;;;;;;;12.45;7.45;;;;;;;11.03;47.68;99184.47;4797789;29;20076;-95
2023/01/09 12:55:17;;;;;;;13.93;6.65;;;;;;;11.12;47.75;99182.78;4878168;29;20032;-93
2023/01/09 12:58:12;;;;;;;;;;;;;;;;;;;;;
2023/01/09 13:00:43;;;;;;;11.80;6.72;;;;;;;11.04;47.83;99178.81;4888813;29;20515;-95
2023/01/09 13:03:31;;;;;;;7.47;5.40;;;;;;;11.23;47.13;99195.16;4884691;29;20044;-93
2023/01/09 13:06:24;;;;;;;13.13;6.30;;;;;;;11.19;47.54;99196.00;4889044;29;20040;-94
2023/01/09 13:12:17;;;;;;;9.10;6.28;;;;;;;11.04;47.95;99192.28;5232317;23;20056;-94
2023/01/09 13:15:14;;;;;;;13.45;7.65;;;;;;;11.05;47.54;99188.50;4894030;29;20032;-95
2023/01/09 13:17:45;;;;;;;14.52;8.80;;;;;;;10.96;47.78;99167.78;4880088;29;20033;-93
2023/01/09 13:22:49;;;;;;;10.85;6.72;;;;;;;10.96;47.90;99168.59;5048383;23;20305;-96
2023/01/09 13:25:36;;;;;;;12.93;7.32;;;;;;;10.98;48.55;99188.00;4865578;29;20108;-94
2023/01/09 13:28:36;;;;;;;9.73;6.40;;;;;;;10.78;48.68;99179.97;4904216;29;20032;-93
2023/01/09 13:31:18;;;;;;;11.90;6.78;;;;;;;10.84;48.29;99176.19;4864621;29;20048;-96
2023/01/09 13:33:53;;;;;;;;;;;;;;;10.97;48.25;99194.44;4886607;29;20039;-95
2023/01/09 13:36:28;;;;;;;12.30;7.07;;;;;;;10.84;48.50;99195.03;4997833;23;20010;-95
2023/01/09 13:38:56;;;;;;;11.70;6.38;;;;;;;10.63;48.88;99170.88;4893768;29;20052;-94
2023/01/09 13:44:54;;;;;;;14.15;6.75;;;;;;;10.56;49.57;99197.25;4921600;29;20059;-94
2023/01/09 13:47:32;;;;;;;17.40;7.95;;;;;;;10.42;49.73;99178.19;4901792;29;20045;-96
2023/01/09 13:50:37;;;;;;;11.65;7.25;;;;;;;10.55;49.64;99178.69;4871672;29;20078;-96
2023/01/09 13:53:55;;;;;;;;;;;;;;;;;;;;;
2023/01/09 14:00:15;;;;;;;;;;;;;;;;;;;;;
2023/01/09 14:03:41;;;;;;;;;;;;;;;;;;;;;
2023/01/09 14:06:11;;;;;;;10.45;7.25;;;;;;;10.51;49.96;99199.97;4940900;29;20076;-95
2023/01/09 14:08:37;;;;;;;15.60;8.43;;;;;;;10.21;50.00;99163.94;4922082;29;20031;-96
2023/01/09 14:11:03;;;;;;;11.82;7.55;;;;;;;10.14;50.96;99162.59;4929925;29;20040;-94
2023/01/09 14:13:40;;;;;;;10.93;6.90;;;;;;;10.14;50.78;99171.44;4914231;29;20421;-96
2023/01/09 14:16:19;;;;;;;11.75;8.10;;;;;;;10.05;51.18;99160.44;4910026;29;20047;-96
2023/01/09 14:19:28;;;;;;;10.52;7.00;;;;;;;10.08;50.54;99164.47;4912349;29;20486;-95
2023/01/09 14:22:17;;;;;;;;;;;;;;;;;;;;;
2023/01/09 14:24:51;;;;;;;11.75;7.15;;;;;;;9.96;51.74;99191.66;4926162;29;20577;-95
2023/01/09 14:27:50;;;;;;;11.63;7.60;;;;;;;9.75;52.27;99187.31;4935676;29;20094;-96
2023/01/09 14:30:51;;;;;;;38.03;15.27;;;;;;;9.70;52.39;99170.09;4924709;29;20030;-94
2023/01/09 14:33:29;;;;;;;;;;;;;;;;;;;;;
2023/01/09 14:35:57;;;;;;;16.15;9.07;;;;;;;9.76;52.68;99191.63;4950034;29;20114;-95
2023/01/09 14:38:45;;;;;;;13.65;7.70;;;;;;;9.54;52.46;99148.84;4960083;29;20032;-96
2023/01/09 14:41:24;;;;;;;;;;;;;;;;;;;;;
2023/01/09 14:44:02;;;;;;;11.05;6.72;;;;;;;9.44;53.53;99165.75;4949544;29;20478;-95
2023/01/09 14:46:34;;;;;;;12.02;7.65;;;;;;;9.26;53.74;99135.66;4897316;29;20040;-93
2023/01/09 14:49:33;;;;;;;24.15;11.77;;;;;;;9.53;53.54;99176.81;4906635;29;20426;-93
2023/01/09 14:52:35;;;;;;;23.35;12.00;;;;;;;9.49;53.89;99169.28;4931163;29;20042;-93